Time;durP1;ratioP1;P1;durP2;ratioP2;P2;SDS_P1;SDS_P2;PMS_P1;PMS_P2;Temp;Humidity;BMP_temperature;BMP_pressure;BME280_temperature;BME280_humidity;BME280_pressure;Samples;Min_cycle;Max_cycle;Signal;HPM_P1;HPM_P2
2022/05/27 00:00:19;;;;;;;4.20;1.60;;;;;;;16.98;80.42;101304.25;5071365;28;20082;-81
2022/05/27 00:02:47;;;;;;;6.50;1.25;;;;;;;16.89;81.37;101309.47;5071353;28;20052;-82
2022/05/27 00:05:13;;;;;;;4.47;1.33;;;;;;;16.82;81.98;101311.75;5069512;28;20390;-82
2022/05/27 00:07:39;;;;;;;8.00;1.75;;;;;;;17.03;80.50;101310.03;5071087;28;20086;-81
2022/05/27 00:10:05;;;;;;;13.73;1.85;;;;;;;17.04;80.57;101306.41;5071302;28;20028;-81
2022/05/27 00:12:31;;;;;;;6.70;2.05;;;;;;;16.46;84.52;101300.41;5070746;28;20033;-81
2022/05/27 00:14:56;;;;;;;4.78;1.30;;;;;;;17.02;80.12;101297.72;5070880;28;20028;-81
2022/05/27 00:17:21;;;;;;;4.60;1.40;;;;;;;17.01;80.09;101301.34;5071143;28;20427;-81
2022/05/27 00:19:47;;;;;;;8.32;1.65;;;;;;;17.10;79.33;101293.59;5070528;28;20444;-81
2022/05/27 00:22:13;;;;;;;4.63;1.55;;;;;;;17.05;79.42;101286.84;5071831;28;20025;-81
2022/05/27 00:24:39;;;;;;;4.78;1.10;;;;;;;17.11;79.20;101287.34;5074242;28;20028;-81
2022/05/27 00:27:07;;;;;;;4.30;1.25;;;;;;;17.30;78.15;101290.16;5074299;28;20051;-82
2022/05/27 00:29:32;;;;;;;3.00;1.50;;;;;;;17.04;79.62;101292.28;5074694;28;20058;-81
2022/05/27 00:31:58;;;;;;;10.25;1.20;;;;;;;17.14;78.54;101292.38;5073273;28;20021;-82
2022/05/27 00:34:23;;;;;;;2.08;0.98;;;;;;;17.16;78.30;101287.78;5074444;28;20162;-81
2022/05/27 00:36:48;;;;;;;3.10;1.20;;;;;;;17.01;78.93;101297.84;5074403;28;20116;-81
2022/05/27 00:39:14;;;;;;;3.58;1.02;;;;;;;16.69;81.55;101303.06;5074313;28;20099;-81
2022/05/27 00:41:41;;;;;;;7.97;2.75;;;;;;;16.63;81.97;101297.28;5072744;28;20181;-81
2022/05/27 00:44:07;;;;;;;5.32;1.67;;;;;;;16.87;80.44;101291.00;5073138;28;20052;-81
2022/05/27 00:46:33;;;;;;;4.07;1.25;;;;;;;17.13;78.29;101293.34;5074425;28;20138;-82
2022/05/27 00:49:08;;;;;;;9.07;2.13;;;;;;;16.89;79.95;101291.72;5074359;28;20036;-81
2022/05/27 00:51:42;;;;;;;3.78;1.73;;;;;;;16.88;79.60;101287.38;5071986;28;20067;-81
2022/05/27 00:54:24;;;;;;;4.82;1.52;;;;;;;17.15;78.12;101292.25;5073685;28;20033;-81
2022/05/27 00:57:01;;;;;;;5.90;2.30;;;;;;;16.80;79.64;101293.25;5073922;28;20031;-81
2022/05/27 00:59:34;;;;;;;4.43;1.80;;;;;;;17.09;78.57;101292.75;5074217;28;20056;-81
2022/05/27 01:01:59;;;;;;;5.88;1.92;;;;;;;17.07;77.65;101299.16;5073906;28;20060;-82
2022/05/27 01:04:27;;;;;;;6.00;1.88;;;;;;;17.15;77.60;101304.69;5073919;28;20063;-81
2022/05/27 01:06:53;;;;;;;7.13;2.40;;;;;;;17.13;77.01;101302.16;5073522;28;20379;-81
2022/05/27 01:09:19;;;;;;;6.00;3.20;;;;;;;16.95;77.62;101301.84;5072521;28;20535;-81
2022/05/27 01:12:22;;;;;;;6.43;2.40;;;;;;;17.18;77.05;101305.28;5073747;28;20491;-81
2022/05/27 01:14:47;;;;;;;6.10;2.75;;;;;;;17.07;77.01;101299.16;5074106;28;20021;-81
2022/05/27 01:17:26;;;;;;;6.50;3.15;;;;;;;17.16;76.33;101304.56;5073826;28;20089;-82
2022/05/27 01:20:18;;;;;;;5.03;2.97;;;;;;;16.90;77.83;101298.69;5073471;28;20020;-82
2022/05/27 01:23:26;;;;;;;7.47;3.25;;;;;;;17.00;77.75;101297.00;5072133;28;20398;-81
2022/05/27 01:26:00;;;;;;;5.00;2.60;;;;;;;16.94;77.14;101302.81;5069748;28;20044;-81
2022/05/27 01:28:43;;;;;;;5.95;2.75;;;;;;;17.15;76.17;101299.38;5073692;28;20036;-81
2022/05/27 01:31:11;;;;;;;6.90;2.95;;;;;;;17.02;77.60;101304.81;5073505;28;20036;-81
2022/05/27 01:33:46;;;;;;;7.45;3.15;;;;;;;16.92;77.31;101310.03;5072427;28;20108;-82
2022/05/27 01:36:20;;;;;;;7.03;2.97;;;;;;;17.11;76.61;101306.75;5073205;28;20162;-82
2022/05/27 01:39:01;;;;;;;6.78;3.15;;;;;;;17.19;75.97;101300.81;5073311;28;20122;-81
2022/05/27 01:41:51;;;;;;;8.20;3.50;;;;;;;17.34;75.40;101298.72;5073222;28;20062;-82
2022/05/27 01:44:44;;;;;;;7.60;3.38;;;;;;;17.28;75.45;101300.06;5073085;28;20044;-82
2022/05/27 01:47:18;;;;;;;6.32;3.78;;;;;;;17.14;75.54;101297.69;5073370;28;20382;-82
2022/05/27 01:49:48;;;;;;;7.75;4.18;;;;;;;17.08;76.07;101290.22;5072891;28;20107;-82
2022/05/27 01:52:35;;;;;;;6.00;3.67;;;;;;;17.07;75.96;101300.00;5072786;28;20436;-82
2022/05/27 01:55:10;;;;;;;8.50;3.85;;;;;;;17.21;75.27;101299.72;5073211;28;20028;-82
2022/05/27 01:57:40;;;;;;;6.85;3.70;;;;;;;17.33;74.60;101295.22;5072890;28;20066;-81
2022/05/27 02:00:20;;;;;;;9.57;4.40;;;;;;;17.38;74.55;101301.00;5072344;28;20089;-82
2022/05/27 02:02:58;;;;;;;7.53;3.38;;;;;;;17.37;74.31;101299.28;5071450;28;20025;-82
2022/05/27 02:05:30;;;;;;;6.85;3.72;;;;;;;17.35;74.03;101295.91;5072492;28;20029;-82
2022/05/27 02:08:01;;;;;;;;;;;;;;;17.26;74.62;101291.41;5073297;28;20513;-82
2022/05/27 02:10:30;;;;;;;7.78;3.55;;;;;;;17.24;74.83;101301.28;5072704;28;19908;-82
2022/05/27 02:13:07;;;;;;;4.93;3.28;;;;;;;17.31;74.63;101293.66;5072435;28;20028;-82
2022/05/27 02:15:38;;;;;;;7.10;2.83;;;;;;;17.22;74.87;101304.06;5072790;28;20020;-82
2022/05/27 02:18:22;;;;;;;7.88;3.25;;;;;;;17.23;75.30;101300.44;5072413;28;20059;-81
2022/05/27 02:20:54;;;;;;;6.22;3.45;;;;;;;17.09;75.33;101297.22;5072633;28;20032;-82
2022/05/27 02:23:29;;;;;;;8.52;3.88;;;;;;;16.99;75.82;101300.63;5072456;28;20039;-82
2022/05/27 02:25:56;;;;;;;5.90;3.40;;;;;;;17.16;74.50;101299.25;5071456;28;20016;-82
2022/05/27 02:28:30;;;;;;;5.15;3.55;;;;;;;16.95;75.81;101296.53;5070972;28;20028;-81
2022/05/27 02:31:05;;;;;;;6.32;3.88;;;;;;;17.21;74.53;101302.38;5072436;28;20532;-81
2022/05/27 02:36:48;;;;;;;7.70;3.75;;;;;;;17.15;75.04;101302.03;5071994;28;20051;-82
2022/05/27 02:39:14;;;;;;;9.00;4.05;;;;;;;16.95;75.59;101301.84;5072153;28;20062;-81
2022/05/27 02:41:39;;;;;;;6.47;4.10;;;;;;;16.87;75.83;101301.63;5072142;28;20437;-81
2022/05/27 02:44:10;;;;;;;8.90;4.43;;;;;;;16.44;78.06;101292.56;5072107;28;20032;-81
2022/05/27 02:46:53;;;;;;;7.10;3.78;;;;;;;16.84;76.32;101296.53;5072024;28;20078;-81
2022/05/27 02:49:51;;;;;;;7.80;4.30;;;;;;;16.74;76.06;101295.56;5071205;28;20024;-81
2022/05/27 02:52:36;;;;;;;9.48;4.60;;;;;;;16.37;78.72;101298.47;5050170;28;20052;-82
2022/05/27 02:55:13;;;;;;;9.80;4.38;;;;;;;16.58;77.77;101293.28;5070715;28;20043;-82
2022/05/27 02:57:50;;;;;;;9.52;4.88;;;;;;;16.61;76.75;101293.91;5070955;28;20025;-82
2022/05/27 03:00:21;;;;;;;11.10;5.28;;;;;;;16.11;80.42;101309.28;5071592;28;20479;-82
2022/05/27 03:02:47;;;;;;;11.07;5.53;;;;;;;16.01;81.86;101303.00;5071635;28;20035;-82
2022/05/27 03:05:15;;;;;;;9.60;5.57;;;;;;;16.25;80.08;101298.50;5071986;28;20025;-82
2022/05/27 03:08:18;;;;;;;10.85;5.55;;;;;;;16.37;79.51;101295.81;5071995;28;20025;-81
2022/05/27 03:11:02;;;;;;;11.38;6.22;;;;;;;16.49;78.52;101299.31;5071366;28;20032;-82
2022/05/27 03:13:59;;;;;;;16.38;6.25;;;;;;;16.17;80.13;101306.19;5071423;28;20040;-82
2022/05/27 03:16:48;;;;;;;9.20;4.82;;;;;;;16.43;77.51;101300.66;5051655;28;20029;-82
2022/05/27 03:19:30;;;;;;;10.35;6.00;;;;;;;15.86;80.60;101302.41;5051699;28;20036;-81
2022/05/27 03:22:08;;;;;;;10.75;6.22;;;;;;;15.98;80.63;101309.41;5051544;28;20115;-82
2022/05/27 03:24:57;;;;;;;11.95;5.43;;;;;;;16.23;77.20;101305.72;5063961;28;20035;-82
2022/05/27 03:27:35;;;;;;;13.18;5.53;;;;;;;16.10;77.33;101310.25;5067261;28;20040;-82
2022/05/27 03:30:06;;;;;;;11.20;6.10;;;;;;;15.88;78.31;101310.19;5071502;28;20020;-82
2022/05/27 03:33:09;;;;;;;10.50;5.88;;;;;;;15.91;78.13;101315.28;5071558;28;20426;-82
2022/05/27 03:36:09;;;;;;;9.50;5.68;;;;;;;15.74;79.41;101308.59;5071371;28;20028;-81
2022/05/27 03:38:50;;;;;;;8.80;5.35;;;;;;;15.89;76.70;101319.84;5052567;28;20403;-82
2022/05/27 03:41:24;;;;;;;10.82;5.93;;;;;;;15.54;79.63;101318.00;5069593;28;20028;-82
2022/05/27 03:43:50;;;;;;;10.60;6.10;;;;;;;15.23;81.88;101315.00;5071452;28;20052;-82
2022/05/27 03:46:31;;;;;;;9.55;5.55;;;;;;;15.34;81.19;101316.84;5071301;28;20024;-81
2022/05/27 03:48:56;;;;;;;10.80;6.15;;;;;;;15.39;80.66;101320.84;5071167;28;20031;-82
2022/05/27 03:51:29;;;;;;;9.77;5.90;;;;;;;15.24;82.18;101316.66;5071432;28;20021;-82
2022/05/27 03:54:04;;;;;;;14.18;5.72;;;;;;;15.36;81.31;101323.69;5070981;28;20099;-81
2022/05/27 03:56:41;;;;;;;18.83;6.97;;;;;;;15.34;81.18;101328.25;5071256;28;20432;-82
2022/05/27 03:59:12;;;;;;;9.50;5.90;;;;;;;15.36;79.94;101331.63;5075231;28;20029;-81
2022/05/27 04:01:41;;;;;;;17.20;6.67;;;;;;;15.54;78.23;101337.41;5074980;28;20028;-81
2022/05/27 04:04:09;;;;;;;11.63;6.53;;;;;;;15.39;79.58;101347.28;5075252;28;20028;-81
2022/05/27 04:06:34;;;;;;;9.52;5.95;;;;;;;15.41;78.23;101334.78;5075294;28;20024;-81
2022/05/27 04:09:00;;;;;;;10.27;6.30;;;;;;;15.38;78.58;101344.75;5074906;28;20020;-81
2022/05/27 04:11:27;;;;;;;10.52;6.28;;;;;;;15.26;79.41;101347.38;5074725;28;20048;-81
2022/05/27 04:13:53;;;;;;;9.82;5.95;;;;;;;15.07;79.89;101352.28;5074954;28;20025;-81
2022/05/27 04:16:18;;;;;;;11.45;6.28;;;;;;;15.39;78.67;101355.25;5074878;28;20039;-81
2022/05/27 04:18:44;;;;;;;10.13;6.30;;;;;;;15.52;76.61;101351.69;5074854;28;20382;-81
2022/05/27 04:21:09;;;;;;;11.07;5.95;;;;;;;15.51;76.33;101357.94;5074933;28;20036;-81
2022/05/27 04:23:36;;;;;;;9.02;4.85;;;;;;;15.42;76.49;101354.16;5074620;28;20474;-81
2022/05/27 04:26:01;;;;;;;9.77;5.18;;;;;;;15.36;76.34;101359.91;5075206;28;20526;-82
2022/05/27 04:28:27;;;;;;;10.00;5.53;;;;;;;15.31;76.13;101356.75;5074875;28;20128;-81
2022/05/27 04:30:52;;;;;;;9.48;5.47;;;;;;;15.30;76.57;101363.84;5074434;28;20032;-81
2022/05/27 04:33:17;;;;;;;11.18;5.25;;;;;;;15.18;76.76;101370.03;5074428;28;20029;-81
2022/05/27 04:35:43;;;;;;;11.27;4.65;;;;;;;15.22;76.50;101367.03;5074598;28;20020;-83
2022/05/27 04:38:09;;;;;;;8.82;4.70;;;;;;;15.24;76.71;101370.44;5074228;28;20097;-83
2022/05/27 04:40:35;;;;;;;12.35;5.22;;;;;;;15.19;76.72;101371.72;5066573;28;20293;-81
2022/05/27 04:43:01;;;;;;;7.47;5.18;;;;;;;15.20;76.70;101381.34;5073711;28;20427;-81
2022/05/27 04:45:27;;;;;;;7.22;5.35;;;;;;;15.19;75.99;101377.84;5074205;28;20099;-81
2022/05/27 04:47:52;;;;;;;10.00;5.15;;;;;;;15.15;76.19;101376.38;5074199;28;20111;-82
2022/05/27 04:50:19;;;;;;;11.25;5.57;;;;;;;15.07;77.60;101395.44;5074133;28;20059;-82
2022/05/27 04:52:44;;;;;;;10.48;5.05;;;;;;;15.02;77.81;101392.28;5074021;28;20037;-82
2022/05/27 04:55:12;;;;;;;12.77;5.35;;;;;;;15.15;76.95;101396.72;5073972;28;20017;-81
2022/05/27 04:57:40;;;;;;;7.22;4.40;;;;;;;15.26;75.88;101395.00;5074068;28;20024;-81
2022/05/27 05:00:12;;;;;;;12.10;5.13;;;;;;;15.29;75.92;101398.38;5073822;28;20103;-82
2022/05/27 05:02:37;;;;;;;11.27;4.93;;;;;;;15.26;75.61;101404.69;5073833;28;20033;-82
2022/05/27 05:05:03;;;;;;;9.85;4.68;;;;;;;15.31;75.52;101412.34;5073933;28;20107;-82
2022/05/27 05:07:28;;;;;;;13.00;4.75;;;;;;;15.22;75.79;101419.09;5073385;28;20479;-82
2022/05/27 05:09:54;;;;;;;13.27;5.32;;;;;;;15.18;75.60;101413.19;5073506;28;20041;-82
2022/05/27 05:12:22;;;;;;;10.02;4.18;;;;;;;15.21;74.72;101420.91;5073644;28;20111;-82
2022/05/27 05:14:49;;;;;;;9.82;3.58;;;;;;;15.30;74.36;101426.50;5073523;28;20025;-82
2022/05/27 05:17:14;;;;;;;8.07;3.50;;;;;;;15.35;73.88;101430.50;5073395;28;20586;-82
2022/05/27 05:19:39;;;;;;;6.30;3.17;;;;;;;15.04;72.96;101422.09;5073522;28;20242;-82
2022/05/27 05:22:05;;;;;;;14.85;3.28;;;;;;;15.02;73.00;101431.94;5073095;28;20433;-82
2022/05/27 05:24:31;;;;;;;11.80;3.13;;;;;;;15.19;72.57;101422.81;5073357;28;20028;-82
2022/05/27 05:26:56;;;;;;;11.68;3.40;;;;;;;15.14;71.78;101422.28;5073475;28;20028;-82
2022/05/27 05:29:21;;;;;;;12.55;3.13;;;;;;;15.02;71.02;101415.25;5073398;28;20017;-81
2022/05/27 05:31:47;;;;;;;15.13;3.25;;;;;;;14.88;71.82;101429.44;5073048;28;20024;-81
2022/05/27 05:34:12;;;;;;;13.60;2.78;;;;;;;15.01;70.90;101432.91;5073431;28;20502;-81
2022/05/27 05:36:37;;;;;;;15.98;2.95;;;;;;;14.94;71.30;101444.88;5073230;28;20297;-82
2022/05/27 05:39:04;;;;;;;9.15;2.63;;;;;;;15.13;70.33;101443.59;5072924;28;20419;-81
2022/05/27 05:41:36;;;;;;;9.35;2.92;;;;;;;15.46;69.19;101448.25;5072243;28;20032;-81
2022/05/27 05:44:02;;;;;;;10.48;2.67;;;;;;;15.41;69.14;101445.09;5063624;28;20033;-81
2022/05/27 05:46:30;;;;;;;7.07;2.35;;;;;;;15.50;69.30;101451.53;5061739;28;20036;-81
2022/05/27 05:48:56;;;;;;;12.10;2.80;;;;;;;15.55;68.18;101447.59;5071593;28;20054;-81
2022/05/27 05:51:21;;;;;;;10.57;2.80;;;;;;;15.53;68.67;101451.31;5072550;28;20418;-81
2022/05/27 05:53:47;;;;;;;17.58;3.85;;;;;;;15.59;68.01;101450.88;5072983;28;20033;-82
2022/05/27 05:56:13;;;;;;;10.70;2.95;;;;;;;15.43;68.65;101456.44;5072606;28;20025;-82
2022/05/27 05:58:38;;;;;;;13.15;2.67;;;;;;;15.55;68.31;101467.94;5071985;28;20054;-81
2022/05/27 06:01:04;;;;;;;10.38;3.55;;;;;;;15.90;66.64;101459.28;5072288;28;20021;-81
2022/05/27 06:03:29;;;;;;;12.27;2.30;;;;;;;15.59;67.55;101469.41;5072190;28;20506;-80
2022/05/27 06:05:54;;;;;;;11.18;1.92;;;;;;;16.01;66.55;101478.69;5072627;28;20073;-82
2022/05/27 06:08:20;;;;;;;8.10;2.35;;;;;;;16.18;66.11;101474.78;5072236;28;20112;-82
2022/05/27 06:10:46;;;;;;;14.70;4.05;;;;;;;15.98;66.28;101480.72;5067591;28;20035;-80
2022/05/27 06:13:12;;;;;;;7.85;2.15;;;;;;;16.37;66.21;101481.34;5065583;28;20025;-80
2022/05/27 06:15:38;;;;;;;19.80;3.53;;;;;;;16.34;65.26;101471.00;5067165;28;20028;-80
2022/05/27 06:18:05;;;;;;;8.80;2.28;;;;;;;16.59;64.57;101489.38;5067166;28;20050;-82
2022/05/27 06:20:30;;;;;;;12.52;2.78;;;;;;;16.03;65.16;101484.75;5066728;28;20025;-81
2022/05/27 06:22:56;;;;;;;13.02;2.70;;;;;;;16.74;62.47;101494.47;5054161;28;20071;-82
2022/05/27 06:25:22;;;;;;;9.32;2.40;;;;;;;17.77;60.10;101500.53;5047594;28;20024;-83
2022/05/27 06:27:48;;;;;;;18.77;3.10;;;;;;;19.33;55.68;101495.47;5045256;28;20074;-83
2022/05/27 06:35:42;;;;;;;8.90;1.85;;;;;;;25.45;40.33;101486.63;5046916;28;20040;-84
2022/05/27 06:38:08;;;;;;;16.20;2.45;;;;;;;23.30;42.31;101505.56;5046974;28;20032;-83
2022/05/27 06:40:33;;;;;;;12.68;2.50;;;;;;;26.39;37.71;101503.50;5061875;28;20025;-84
2022/05/27 06:42:59;;;;;;;7.78;2.10;;;;;;;26.83;36.79;101508.13;5057386;28;20502;-85
2022/05/27 06:45:25;;;;;;;12.48;2.47;;;;;;;27.67;34.12;101483.53;5065089;28;20425;-83
2022/05/27 06:47:50;;;;;;;10.00;2.35;;;;;;;30.48;29.64;101441.69;5066878;28;20548;-83
2022/05/27 06:50:15;;;;;;;9.00;1.75;;;;;;;30.95;29.48;101454.09;5066660;28;20029;-84
2022/05/27 06:52:42;;;;;;;9.88;2.05;;;;;;;31.65;28.17;101437.06;5059255;28;21436;-83
2022/05/27 06:55:09;;;;;;;9.95;2.75;;;;;;;30.15;29.41;101502.91;5058870;28;20032;-83
2022/05/27 06:57:35;;;;;;;12.80;3.45;;;;;;;29.53;29.54;101499.47;5065685;28;20237;-83
2022/05/27 07:00:01;;;;;;;8.15;1.92;;;;;;;30.67;27.80;101476.06;5065065;28;20384;-83
2022/05/27 07:02:27;;;;;;;15.38;3.13;;;;;;;28.87;29.91;101505.34;5065475;28;20051;-82
2022/05/27 07:04:52;;;;;;;10.57;2.38;;;;;;;31.62;25.85;101459.22;5064498;28;20035;-82
2022/05/27 07:07:18;;;;;;;9.73;3.17;;;;;;;31.02;25.78;101437.78;5067053;28;20055;-83
2022/05/27 07:09:43;;;;;;;8.55;2.45;;;;;;;29.40;27.69;101439.88;5066938;28;20029;-83
2022/05/27 07:12:11;;;;;;;9.43;3.47;;;;;;;28.03;29.43;101509.66;5059320;28;20460;-83
2022/05/27 07:14:38;;;;;;;16.50;2.47;;;;;;;28.64;28.82;101511.88;5058460;28;20062;-83
2022/05/27 07:17:05;;;;;;;9.35;2.22;;;;;;;29.12;29.50;101461.66;5056953;28;20033;-83
2022/05/27 07:19:30;;;;;;;16.17;3.20;;;;;;;29.02;29.28;101524.16;5066016;28;20035;-84
2022/05/27 07:21:56;;;;;;;11.40;2.33;;;;;;;29.99;27.57;101519.59;5064004;28;20025;-83
2022/05/27 07:24:22;;;;;;;10.65;2.65;;;;;;;29.42;27.68;101467.56;5067046;28;20052;-82
2022/05/27 07:26:48;;;;;;;16.55;2.70;;;;;;;29.63;26.61;101512.59;5066667;28;20413;-83
2022/05/27 07:29:13;;;;;;;10.07;2.95;;;;;;;30.55;27.20;101524.66;5058407;28;20029;-83
2022/05/27 07:31:40;;;;;;;11.00;2.60;;;;;;;30.90;26.31;101520.84;5065808;28;20107;-83
2022/05/27 07:34:06;;;;;;;9.05;2.35;;;;;;;30.18;26.73;101532.31;5066331;28;20469;-83
2022/05/27 07:36:32;;;;;;;13.40;2.90;;;;;;;30.32;26.82;101524.22;5075342;28;20104;-83
2022/05/27 07:38:57;;;;;;;13.15;2.67;;;;;;;30.08;26.99;101536.50;5075395;28;20119;-83
2022/05/27 07:41:24;;;;;;;10.88;2.28;;;;;;;28.72;28.53;101543.31;5075444;28;20038;-83
2022/05/27 07:43:50;;;;;;;11.27;2.42;;;;;;;30.09;26.84;101544.38;5075488;28;20467;-83
2022/05/27 07:46:16;;;;;;;14.07;2.63;;;;;;;29.71;26.75;101541.38;5076008;28;20029;-83
2022/05/27 07:48:43;;;;;;;12.93;2.53;;;;;;;29.18;27.25;101548.19;5075346;28;20046;-81
2022/05/27 07:51:09;;;;;;;18.35;3.42;;;;;;;30.59;26.01;101549.44;5077313;28;20052;-83
2022/05/27 07:53:38;;;;;;;11.18;3.25;;;;;;;30.66;26.20;101552.97;5075560;28;20051;-83
2022/05/27 07:56:05;;;;;;;6.97;2.45;;;;;;;31.57;24.87;101554.88;5075478;28;20028;-83
2022/05/27 07:58:30;;;;;;;11.73;2.50;;;;;;;32.09;24.12;101553.97;5075476;28;20055;-83
2022/05/27 08:00:55;;;;;;;11.98;2.25;;;;;;;32.97;24.49;101563.91;5074715;28;20479;-83
2022/05/27 08:03:21;;;;;;;9.38;2.35;;;;;;;34.36;22.86;101564.03;5074393;28;20474;-83
2022/05/27 08:05:47;;;;;;;13.50;2.83;;;;;;;29.00;27.60;101574.91;5074234;28;20061;-83
2022/05/27 08:08:13;;;;;;;15.68;2.58;;;;;;;28.44;27.16;101579.22;5074717;28;20047;-83
2022/05/27 08:10:40;;;;;;;9.77;2.08;;;;;;;29.75;26.65;101572.44;5075133;28;20425;-83
2022/05/27 08:13:06;;;;;;;12.93;2.38;;;;;;;30.57;26.13;101565.94;5073671;28;20016;-83
2022/05/27 08:15:32;;;;;;;11.45;2.78;;;;;;;31.02;25.47;101557.13;5075076;28;20029;-83
2022/05/27 08:17:58;;;;;;;9.45;2.47;;;;;;;30.08;25.84;101564.41;5073638;28;20039;-83
2022/05/27 08:20:30;;;;;;;14.40;2.83;;;;;;;29.76;25.43;101568.66;5074855;28;20021;-83
2022/05/27 08:22:57;;;;;;;13.40;2.35;;;;;;;32.03;25.04;101569.25;5074581;28;20021;-83
2022/05/27 08:25:23;;;;;;;10.73;2.45;;;;;;;30.22;26.14;101568.78;5073692;28;20111;-83
2022/05/27 08:27:49;;;;;;;13.18;2.35;;;;;;;31.59;25.08;101568.22;5074523;28;20020;-83
2022/05/27 08:30:18;;;;;;;11.20;2.92;;;;;;;31.51;24.18;101561.16;5073782;28;20524;-83
2022/05/27 08:32:43;;;;;;;7.85;2.63;;;;;;;33.66;23.16;101555.63;5074726;28;20048;-83
2022/05/27 08:38:09;;;;;;;9.32;2.65;;;;;;;31.43;24.72;101566.81;5074072;28;20035;-83
2022/05/27 08:40:46;;;;;;;11.70;2.97;;;;;;;31.38;26.57;101567.47;5073321;28;20035;-84
2022/05/27 08:43:18;;;;;;;13.18;2.58;;;;;;;28.94;27.93;101573.81;5073155;28;20024;-84
2022/05/27 08:46:04;;;;;;;12.60;2.22;;;;;;;28.48;28.98;101564.28;5074461;28;20438;-84
2022/05/27 08:48:38;;;;;;;6.40;2.15;;;;;;;30.61;25.88;101561.75;5074485;28;20454;-84
2022/05/27 08:51:14;;;;;;;12.02;2.92;;;;;;;31.29;25.14;101557.06;5074586;28;20020;-84
2022/05/27 08:53:53;;;;;;;13.30;2.83;;;;;;;31.73;25.83;101569.00;5073870;28;20043;-84
2022/05/27 08:59:38;;;;;;;12.13;2.88;;;;;;;32.59;25.01;101573.91;5070962;28;20504;-83
2022/05/27 09:02:03;;;;;;;9.38;2.60;;;;;;;33.71;23.91;101567.50;5057004;28;20104;-83
2022/05/27 09:04:48;;;;;;;12.25;3.00;;;;;;;32.03;22.78;101561.13;5060731;28;20115;-84
2022/05/27 09:07:41;;;;;;;11.63;2.55;;;;;;;32.67;23.99;101566.53;5072985;28;20028;-84
2022/05/27 09:10:17;;;;;;;10.70;2.25;;;;;;;31.33;24.33;101574.56;5053207;28;20037;-84
2022/05/27 09:13:07;;;;;;;10.43;2.75;;;;;;;32.90;22.31;101569.44;5064451;28;20028;-84
2022/05/27 09:15:43;;;;;;;13.43;3.08;;;;;;;32.59;23.85;101573.06;5053578;28;20096;-84
2022/05/27 09:18:46;;;;;;;10.00;3.03;;;;;;;30.58;24.24;101569.47;5071360;28;20035;-84
2022/05/27 09:21:18;;;;;;;8.90;1.92;;;;;;;29.98;25.13;101567.50;5073154;28;20027;-84
2022/05/27 09:24:02;;;;;;;15.00;3.20;;;;;;;31.86;25.03;101579.78;5072980;28;20020;-84
2022/05/27 09:27:02;;;;;;;8.75;2.33;;;;;;;30.58;24.62;101570.28;5055798;28;20542;-84
2022/05/27 09:29:53;;;;;;;7.78;2.25;;;;;;;29.52;28.11;101588.94;5064035;28;20024;-84
2022/05/27 09:32:55;;;;;;;11.35;3.53;;;;;;;31.67;24.01;101580.72;5073251;28;20104;-84
2022/05/27 09:35:26;;;;;;;12.70;2.83;;;;;;;33.10;23.39;101571.97;5073202;28;20064;-84
2022/05/27 09:37:54;;;;;;;19.75;3.45;;;;;;;30.54;25.79;101565.50;5071185;28;20021;-84
2022/05/27 09:40:28;;;;;;;13.43;3.40;;;;;;;30.63;25.51;101565.09;5068396;28;20382;-84
2022/05/27 09:42:58;;;;;;;10.20;2.67;;;;;;;30.57;25.55;101575.91;5072753;28;20036;-84
2022/05/27 09:45:24;;;;;;;13.98;2.83;;;;;;;32.24;24.86;101578.13;5069721;28;20081;-84
2022/05/27 09:47:56;;;;;;;11.00;2.60;;;;;;;30.70;25.12;101578.63;5066369;28;20029;-83
2022/05/27 09:50:31;;;;;;;14.18;2.95;;;;;;;30.81;25.89;101580.72;5053258;28;20025;-84
2022/05/27 09:52:58;;;;;;;13.45;3.42;;;;;;;30.14;26.77;101581.69;5053049;28;20033;-85
2022/05/27 09:55:36;;;;;;;10.07;2.88;;;;;;;30.89;26.55;101579.69;5060703;28;20417;-85
2022/05/27 09:58:05;;;;;;;10.73;2.72;;;;;;;27.73;28.88;101584.47;5055625;28;20029;-84
2022/05/27 10:00:40;;;;;;;15.98;3.20;;;;;;;26.62;30.53;101586.13;5059614;28;20028;-85
2022/05/27 10:03:27;;;;;;;12.40;3.10;;;;;;;29.90;27.21;101580.38;5072303;28;20025;-86
2022/05/27 10:05:54;;;;;;;16.13;3.35;;;;;;;29.91;26.60;101580.16;5072496;28;20028;-84
2022/05/27 10:08:50;;;;;;;11.38;2.92;;;;;;;29.41;26.95;101572.25;5069074;28;20031;-83
2022/05/27 10:11:30;;;;;;;9.35;2.67;;;;;;;29.62;28.18;101574.03;5065585;28;20393;-84
2022/05/27 10:14:14;;;;;;;11.43;2.70;;;;;;;29.17;26.98;101570.88;5072491;28;20044;-83
2022/05/27 10:16:42;;;;;;;14.00;2.67;;;;;;;28.20;27.17;101571.50;5072308;28;20572;-83
2022/05/27 10:19:13;;;;;;;15.18;3.53;;;;;;;30.20;26.61;101564.63;5072239;28;20123;-83
2022/05/27 10:21:59;;;;;;;8.77;2.47;;;;;;;30.79;25.68;101558.41;5072150;28;20036;-83
2022/05/27 10:24:29;;;;;;;9.68;3.10;;;;;;;31.03;25.57;101559.63;5070557;28;20055;-84
2022/05/27 10:27:02;;;;;;;14.60;2.70;;;;;;;31.02;24.65;101562.53;5070990;28;20075;-83
2022/05/27 10:29:28;;;;;;;12.30;3.00;;;;;;;29.37;26.54;101564.75;5072677;28;20385;-84
2022/05/27 10:31:56;;;;;;;12.30;2.83;;;;;;;28.79;27.33;101563.13;5068838;28;20024;-83
2022/05/27 10:34:40;;;;;;;11.40;2.88;;;;;;;28.00;27.92;101566.75;5052175;28;20025;-87
2022/05/27 10:37:12;;;;;;;14.40;2.92;;;;;;;28.47;28.65;101559.91;5052183;28;20029;-83
2022/05/27 10:40:00;;;;;;;11.55;2.85;;;;;;;30.76;26.28;101556.09;5059958;28;20070;-84
2022/05/27 10:42:46;;;;;;;11.68;3.00;;;;;;;31.52;24.89;101546.56;5070695;28;20671;-83
2022/05/27 10:45:23;;;;;;;10.05;2.85;;;;;;;30.30;27.01;101561.50;5068300;28;20124;-84
2022/05/27 10:48:17;;;;;;;18.88;2.90;;;;;;;29.79;25.98;101546.63;5052078;28;21201;-84
2022/05/27 10:50:54;;;;;;;13.35;2.83;;;;;;;30.05;26.87;101556.66;5066488;28;20028;-83
2022/05/27 10:53:38;;;;;;;10.38;2.80;;;;;;;29.65;26.50;101557.38;5071646;28;20021;-84
2022/05/27 10:56:09;;;;;;;11.20;2.70;;;;;;;27.87;27.69;101567.44;5069655;28;20044;-84
2022/05/27 11:04:26;;;;;;;12.32;3.03;;;;;;;28.24;29.19;101570.94;5071640;28;20037;-84
2022/05/27 11:07:10;;;;;;;13.20;3.33;;;;;;;29.06;28.55;101568.69;5065955;28;20024;-84
2022/05/27 11:10:01;;;;;;;10.00;2.40;;;;;;;29.28;27.20;101566.78;5061476;28;20024;-84
2022/05/27 11:15:55;;;;;;;13.43;2.72;;;;;;;30.12;26.63;101567.53;5051646;28;20518;-84
2022/05/27 11:18:29;;;;;;;13.13;2.63;;;;;;;30.27;27.75;101570.84;5050234;28;20052;-85
2022/05/27 11:21:13;;;;;;;7.93;2.50;;;;;;;29.74;26.16;101582.44;5051685;28;20017;-85
2022/05/27 11:23:47;;;;;;;9.40;2.97;;;;;;;27.64;28.11;101591.00;5060617;28;20036;-85
2022/05/27 11:26:34;;;;;;;10.38;2.55;;;;;;;28.83;27.79;101577.06;5071641;28;20022;-84
2022/05/27 11:29:06;;;;;;;11.10;2.80;;;;;;;27.99;28.49;101583.97;5071576;28;20033;-85
2022/05/27 11:31:48;;;;;;;16.35;3.30;;;;;;;28.44;28.41;101579.22;5071599;28;20040;-84
2022/05/27 11:34:39;;;;;;;11.63;3.10;;;;;;;27.75;30.16;101576.19;5071597;28;20029;-84
2022/05/27 11:37:08;;;;;;;15.55;3.72;;;;;;;28.76;29.84;101577.03;5069417;28;20033;-84
2022/05/27 11:40:14;;;;;;;9.70;3.25;;;;;;;29.43;28.78;101567.47;5070199;28;20030;-85
2022/05/27 11:42:47;;;;;;;14.65;2.53;;;;;;;29.48;26.35;101566.88;5070461;28;20459;-85
2022/05/27 11:45:23;;;;;;;9.23;2.20;;;;;;;29.62;27.27;101556.94;5069859;28;20028;-84
2022/05/27 11:48:04;;;;;;;14.40;3.92;;;;;;;28.90;27.36;101575.25;5070576;28;20477;-85
2022/05/27 11:50:38;;;;;;;13.10;2.80;;;;;;;28.88;27.86;101572.75;5068094;28;20482;-84
2022/05/27 11:53:26;;;;;;;12.43;2.60;;;;;;;28.98;28.78;101576.97;5071239;28;20036;-85
2022/05/27 11:56:32;;;;;;;10.23;2.58;;;;;;;28.39;29.94;101565.44;5070438;28;20075;-84
2022/05/27 11:59:00;;;;;;;13.68;2.67;;;;;;;28.40;28.17;101567.13;5071060;28;20029;-84
2022/05/27 12:01:47;;;;;;;7.88;2.65;;;;;;;29.33;27.96;101571.59;5068807;28;20078;-85
2022/05/27 12:04:40;;;;;;;8.13;2.33;;;;;;;29.53;27.71;101575.22;5071251;28;20031;-84
2022/05/27 12:07:20;;;;;;;12.20;3.22;;;;;;;29.79;28.58;101570.97;5070885;28;20021;-84
2022/05/27 12:09:54;;;;;;;21.90;5.32;;;;;;;29.50;27.15;101569.38;5070315;28;20024;-84